sensor_id;sensor_type;location;lat;lon;timestamp;P1;durP1;ratioP1;P2;durP2;ratioP2
5014;SDS011;2526;51.060;4.228;2023-05-17T00:00:27;5.20;;;1.35;;
5014;SDS011;2526;51.060;4.228;2023-05-17T00:02:52;1.20;;;1.02;;
5014;SDS011;2526;51.060;4.228;2023-05-17T00:05:18;3.60;;;1.92;;
5014;SDS011;2526;51.060;4.228;2023-05-17T00:07:43;0.98;;;0.80;;
5014;SDS011;2526;51.060;4.228;2023-05-17T00:10:11;4.63;;;1.40;;
5014;SDS011;2526;51.060;4.228;2023-05-17T00:12:36;21.08;;;2.53;;
5014;SDS011;2526;51.060;4.228;2023-05-17T00:15:02;6.75;;;3.20;;
5014;SDS011;2526;51.060;4.228;2023-05-17T00:17:28;1.08;;;0.98;;
5014;SDS011;2526;51.060;4.228;2023-05-17T00:19:53;1.90;;;0.98;;
5014;SDS011;2526;51.060;4.228;2023-05-17T00:22:19;1.38;;;1.20;;
5014;SDS011;2526;51.060;4.228;2023-05-17T00:24:44;3.67;;;1.15;;
5014;SDS011;2526;51.060;4.228;2023-05-17T00:27:10;6.03;;;1.52;;
5014;SDS011;2526;51.060;4.228;2023-05-17T00:29:35;2.88;;;2.35;;
5014;SDS011;2526;51.060;4.228;2023-05-17T00:32:00;3.67;;;1.38;;
5014;SDS011;2526;51.060;4.228;2023-05-17T00:34:26;3.00;;;2.05;;
5014;SDS011;2526;51.060;4.228;2023-05-17T00:36:51;6.95;;;2.67;;
5014;SDS011;2526;51.060;4.228;2023-05-17T00:39:17;4.28;;;2.22;;
5014;SDS011;2526;51.060;4.228;2023-05-17T00:41:42;5.57;;;2.40;;
5014;SDS011;2526;51.060;4.228;2023-05-17T00:44:08;5.47;;;1.30;;
5014;SDS011;2526;51.060;4.228;2023-05-17T00:46:33;11.38;;;2.05;;
5014;SDS011;2526;51.060;4.228;2023-05-17T00:48:59;1.80;;;1.40;;
5014;SDS011;2526;51.060;4.228;2023-05-17T00:51:24;5.65;;;1.60;;
5014;SDS011;2526;51.060;4.228;2023-05-17T00:53:50;5.35;;;2.75;;
5014;SDS011;2526;51.060;4.228;2023-05-17T00:56:16;1.58;;;1.20;;
5014;SDS011;2526;51.060;4.228;2023-05-17T00:58:41;1.75;;;1.65;;
5014;SDS011;2526;51.060;4.228;2023-05-17T01:01:07;1.90;;;1.60;;
5014;SDS011;2526;51.060;4.228;2023-05-17T01:03:32;2.83;;;1.77;;
5014;SDS011;2526;51.060;4.228;2023-05-17T01:05:58;9.85;;;3.30;;
5014;SDS011;2526;51.060;4.228;2023-05-17T01:08:23;4.80;;;1.63;;
5014;SDS011;2526;51.060;4.228;2023-05-17T01:13:17;4.53;;;2.17;;
5014;SDS011;2526;51.060;4.228;2023-05-17T01:15:56;3.10;;;2.20;;
5014;SDS011;2526;51.060;4.228;2023-05-17T01:18:45;2.80;;;2.53;;
5014;SDS011;2526;51.060;4.228;2023-05-17T01:21:55;2.83;;;1.77;;
5014;SDS011;2526;51.060;4.228;2023-05-17T01:26:46;5.00;;;1.70;;
5014;SDS011;2526;51.060;4.228;2023-05-17T01:29:12;4.07;;;1.60;;
5014;SDS011;2526;51.060;4.228;2023-05-17T01:31:38;3.40;;;1.88;;
5014;SDS011;2526;51.060;4.228;2023-05-17T01:34:07;6.68;;;1.60;;
5014;SDS011;2526;51.060;4.228;2023-05-17T01:36:33;1.75;;;1.60;;
5014;SDS011;2526;51.060;4.228;2023-05-17T01:38:58;3.55;;;2.00;;
5014;SDS011;2526;51.060;4.228;2023-05-17T01:42:02;3.78;;;2.13;;
5014;SDS011;2526;51.060;4.228;2023-05-17T01:44:21;3.17;;;1.60;;
5014;SDS011;2526;51.060;4.228;2023-05-17T01:46:48;3.03;;;1.65;;
5014;SDS011;2526;51.060;4.228;2023-05-17T01:51:49;3.83;;;1.95;;
5014;SDS011;2526;51.060;4.228;2023-05-17T01:54:19;3.60;;;1.73;;
5014;SDS011;2526;51.060;4.228;2023-05-17T01:56:46;5.95;;;2.17;;
5014;SDS011;2526;51.060;4.228;2023-05-17T01:59:14;6.13;;;2.30;;
5014;SDS011;2526;51.060;4.228;2023-05-17T02:01:40;4.55;;;3.13;;
5014;SDS011;2526;51.060;4.228;2023-05-17T02:04:06;13.63;;;2.10;;
5014;SDS011;2526;51.060;4.228;2023-05-17T02:06:31;6.93;;;2.75;;
5014;SDS011;2526;51.060;4.228;2023-05-17T02:08:56;5.57;;;1.38;;
5014;SDS011;2526;51.060;4.228;2023-05-17T02:11:25;1.70;;;1.55;;
5014;SDS011;2526;51.060;4.228;2023-05-17T02:13:50;2.13;;;1.45;;
5014;SDS011;2526;51.060;4.228;2023-05-17T02:16:16;8.45;;;4.32;;
5014;SDS011;2526;51.060;4.228;2023-05-17T02:18:41;1.85;;;1.33;;
5014;SDS011;2526;51.060;4.228;2023-05-17T02:21:07;5.72;;;3.33;;
5014;SDS011;2526;51.060;4.228;2023-05-17T02:23:32;2.47;;;2.03;;
5014;SDS011;2526;51.060;4.228;2023-05-17T02:25:58;7.45;;;3.67;;
5014;SDS011;2526;51.060;4.228;2023-05-17T02:28:23;3.63;;;2.83;;
5014;SDS011;2526;51.060;4.228;2023-05-17T02:30:48;3.60;;;2.38;;
5014;SDS011;2526;51.060;4.228;2023-05-17T02:33:14;7.70;;;2.65;;
5014;SDS011;2526;51.060;4.228;2023-05-17T02:35:40;4.35;;;2.03;;
5014;SDS011;2526;51.060;4.228;2023-05-17T02:38:05;8.00;;;1.67;;
5014;SDS011;2526;51.060;4.228;2023-05-17T02:40:30;2.00;;;1.42;;
5014;SDS011;2526;51.060;4.228;2023-05-17T02:42:56;5.97;;;2.20;;
5014;SDS011;2526;51.060;4.228;2023-05-17T02:45:21;2.83;;;1.67;;
5014;SDS011;2526;51.060;4.228;2023-05-17T02:47:47;3.35;;;2.30;;
5014;SDS011;2526;51.060;4.228;2023-05-17T02:50:12;4.75;;;2.10;;
5014;SDS011;2526;51.060;4.228;2023-05-17T02:52:38;3.47;;;2.13;;
5014;SDS011;2526;51.060;4.228;2023-05-17T02:55:03;2.53;;;1.33;;
5014;SDS011;2526;51.060;4.228;2023-05-17T02:57:29;5.50;;;2.33;;
5014;SDS011;2526;51.060;4.228;2023-05-17T02:59:54;3.50;;;1.35;;
5014;SDS011;2526;51.060;4.228;2023-05-17T03:02:20;1.80;;;1.40;;
5014;SDS011;2526;51.060;4.228;2023-05-17T03:04:45;3.35;;;3.05;;
5014;SDS011;2526;51.060;4.228;2023-05-17T03:07:11;5.82;;;2.00;;
5014;SDS011;2526;51.060;4.228;2023-05-17T03:09:36;6.05;;;2.55;;
5014;SDS011;2526;51.060;4.228;2023-05-17T03:12:02;3.10;;;1.90;;
5014;SDS011;2526;51.060;4.228;2023-05-17T03:14:28;2.17;;;1.45;;
5014;SDS011;2526;51.060;4.228;2023-05-17T03:16:53;6.63;;;1.70;;
5014;SDS011;2526;51.060;4.228;2023-05-17T03:19:19;5.18;;;2.75;;
5014;SDS011;2526;51.060;4.228;2023-05-17T03:21:44;4.03;;;1.92;;
5014;SDS011;2526;51.060;4.228;2023-05-17T03:24:10;4.05;;;2.13;;
5014;SDS011;2526;51.060;4.228;2023-05-17T03:26:35;5.30;;;2.40;;
5014;SDS011;2526;51.060;4.228;2023-05-17T03:29:00;4.22;;;2.08;;
5014;SDS011;2526;51.060;4.228;2023-05-17T03:31:26;4.35;;;1.60;;
5014;SDS011;2526;51.060;4.228;2023-05-17T03:33:51;5.53;;;2.78;;
5014;SDS011;2526;51.060;4.228;2023-05-17T03:36:17;9.98;;;1.80;;
5014;SDS011;2526;51.060;4.228;2023-05-17T03:38:42;9.40;;;2.72;;
5014;SDS011;2526;51.060;4.228;2023-05-17T03:41:08;4.45;;;3.63;;
5014;SDS011;2526;51.060;4.228;2023-05-17T03:43:33;2.80;;;2.33;;
5014;SDS011;2526;51.060;4.228;2023-05-17T03:45:59;5.55;;;2.85;;
5014;SDS011;2526;51.060;4.228;2023-05-17T03:48:24;2.20;;;1.85;;
5014;SDS011;2526;51.060;4.228;2023-05-17T03:50:50;3.10;;;1.35;;
5014;SDS011;2526;51.060;4.228;2023-05-17T03:53:15;8.15;;;1.30;;
5014;SDS011;2526;51.060;4.228;2023-05-17T03:55:41;3.58;;;1.80;;
5014;SDS011;2526;51.060;4.228;2023-05-17T03:58:06;3.08;;;2.10;;
5014;SDS011;2526;51.060;4.228;2023-05-17T04:00:32;2.70;;;1.92;;
5014;SDS011;2526;51.060;4.228;2023-05-17T04:02:57;5.18;;;2.45;;
5014;SDS011;2526;51.060;4.228;2023-05-17T04:05:23;2.28;;;1.90;;
5014;SDS011;2526;51.060;4.228;2023-05-17T04:07:48;4.20;;;2.20;;
5014;SDS011;2526;51.060;4.228;2023-05-17T04:10:14;4.28;;;3.00;;
5014;SDS011;2526;51.060;4.228;2023-05-17T04:12:39;3.90;;;2.58;;
5014;SDS011;2526;51.060;4.228;2023-05-17T04:15:05;6.45;;;1.90;;
5014;SDS011;2526;51.060;4.228;2023-05-17T04:17:31;3.30;;;2.42;;
5014;SDS011;2526;51.060;4.228;2023-05-17T04:19:56;7.93;;;3.15;;
5014;SDS011;2526;51.060;4.228;2023-05-17T04:22:22;2.90;;;1.92;;
5014;SDS011;2526;51.060;4.228;2023-05-17T04:24:47;3.90;;;1.98;;
5014;SDS011;2526;51.060;4.228;2023-05-17T04:27:13;2.33;;;2.00;;
5014;SDS011;2526;51.060;4.228;2023-05-17T04:29:38;8.68;;;3.72;;
5014;SDS011;2526;51.060;4.228;2023-05-17T04:32:05;4.20;;;2.30;;
5014;SDS011;2526;51.060;4.228;2023-05-17T04:34:31;5.20;;;2.42;;
5014;SDS011;2526;51.060;4.228;2023-05-17T04:36:57;4.50;;;2.88;;
5014;SDS011;2526;51.060;4.228;2023-05-17T04:39:22;5.13;;;2.58;;
5014;SDS011;2526;51.060;4.228;2023-05-17T04:41:48;2.63;;;2.03;;
5014;SDS011;2526;51.060;4.228;2023-05-17T04:44:13;3.50;;;2.30;;
5014;SDS011;2526;51.060;4.228;2023-05-17T04:46:39;5.05;;;3.30;;
5014;SDS011;2526;51.060;4.228;2023-05-17T04:49:04;7.32;;;3.65;;
5014;SDS011;2526;51.060;4.228;2023-05-17T04:51:30;5.07;;;2.33;;
5014;SDS011;2526;51.060;4.228;2023-05-17T04:53:55;6.15;;;2.33;;
5014;SDS011;2526;51.060;4.228;2023-05-17T04:56:21;4.28;;;2.85;;
5014;SDS011;2526;51.060;4.228;2023-05-17T04:58:46;7.45;;;3.30;;
5014;SDS011;2526;51.060;4.228;2023-05-17T05:01:12;5.45;;;3.42;;
5014;SDS011;2526;51.060;4.228;2023-05-17T05:03:37;3.70;;;2.30;;
5014;SDS011;2526;51.060;4.228;2023-05-17T05:06:03;3.47;;;2.75;;
5014;SDS011;2526;51.060;4.228;2023-05-17T05:08:28;4.45;;;2.30;;
5014;SDS011;2526;51.060;4.228;2023-05-17T05:10:54;3.35;;;1.90;;
5014;SDS011;2526;51.060;4.228;2023-05-17T05:13:20;6.20;;;2.92;;
5014;SDS011;2526;51.060;4.228;2023-05-17T05:15:46;6.72;;;3.03;;
5014;SDS011;2526;51.060;4.228;2023-05-17T05:18:11;6.65;;;3.63;;
5014;SDS011;2526;51.060;4.228;2023-05-17T05:20:36;4.93;;;3.33;;
5014;SDS011;2526;51.060;4.228;2023-05-17T05:23:02;4.20;;;2.85;;
5014;SDS011;2526;51.060;4.228;2023-05-17T05:25:30;6.50;;;4.65;;
5014;SDS011;2526;51.060;4.228;2023-05-17T05:27:55;2.55;;;2.08;;
5014;SDS011;2526;51.060;4.228;2023-05-17T05:30:21;5.63;;;3.72;;
5014;SDS011;2526;51.060;4.228;2023-05-17T05:32:47;7.25;;;3.10;;
5014;SDS011;2526;51.060;4.228;2023-05-17T05:35:13;13.70;;;3.47;;
5014;SDS011;2526;51.060;4.228;2023-05-17T05:37:38;5.43;;;3.17;;
5014;SDS011;2526;51.060;4.228;2023-05-17T05:40:04;4.22;;;2.30;;
5014;SDS011;2526;51.060;4.228;2023-05-17T05:42:29;5.68;;;2.25;;
5014;SDS011;2526;51.060;4.228;2023-05-17T05:44:55;3.60;;;2.30;;
5014;SDS011;2526;51.060;4.228;2023-05-17T05:47:20;3.53;;;1.58;;
5014;SDS011;2526;51.060;4.228;2023-05-17T05:49:46;6.93;;;3.03;;
5014;SDS011;2526;51.060;4.228;2023-05-17T05:52:11;3.55;;;2.10;;
5014;SDS011;2526;51.060;4.228;2023-05-17T05:54:36;6.53;;;2.67;;
5014;SDS011;2526;51.060;4.228;2023-05-17T05:57:02;5.10;;;2.42;;
5014;SDS011;2526;51.060;4.228;2023-05-17T05:59:28;1.83;;;1.42;;
5014;SDS011;2526;51.060;4.228;2023-05-17T06:01:53;8.77;;;2.63;;
5014;SDS011;2526;51.060;4.228;2023-05-17T06:04:18;3.88;;;1.95;;
5014;SDS011;2526;51.060;4.228;2023-05-17T06:06:44;8.40;;;4.07;;
5014;SDS011;2526;51.060;4.228;2023-05-17T06:09:10;16.52;;;5.55;;
5014;SDS011;2526;51.060;4.228;2023-05-17T06:11:36;5.47;;;3.08;;
5014;SDS011;2526;51.060;4.228;2023-05-17T06:14:02;9.50;;;4.15;;
5014;SDS011;2526;51.060;4.228;2023-05-17T06:16:27;7.28;;;2.80;;
5014;SDS011;2526;51.060;4.228;2023-05-17T06:18:53;7.63;;;2.53;;
5014;SDS011;2526;51.060;4.228;2023-05-17T06:21:18;4.13;;;2.50;;
5014;SDS011;2526;51.060;4.228;2023-05-17T06:23:43;8.27;;;3.17;;
5014;SDS011;2526;51.060;4.228;2023-05-17T06:26:09;8.95;;;4.10;;
5014;SDS011;2526;51.060;4.228;2023-05-17T06:28:35;8.32;;;2.47;;
5014;SDS011;2526;51.060;4.228;2023-05-17T06:31:01;7.20;;;2.50;;
5014;SDS011;2526;51.060;4.228;2023-05-17T06:33:26;4.35;;;1.80;;
5014;SDS011;2526;51.060;4.228;2023-05-17T06:35:53;5.60;;;2.15;;
5014;SDS011;2526;51.060;4.228;2023-05-17T06:38:18;5.25;;;3.35;;
5014;SDS011;2526;51.060;4.228;2023-05-17T06:40:44;5.50;;;2.10;;
5014;SDS011;2526;51.060;4.228;2023-05-17T06:43:09;3.75;;;1.95;;
5014;SDS011;2526;51.060;4.228;2023-05-17T06:45:35;5.53;;;3.58;;
5014;SDS011;2526;51.060;4.228;2023-05-17T06:48:00;9.00;;;2.60;;
5014;SDS011;2526;51.060;4.228;2023-05-17T06:50:26;2.88;;;1.90;;
5014;SDS011;2526;51.060;4.228;2023-05-17T06:52:52;7.07;;;3.35;;
5014;SDS011;2526;51.060;4.228;2023-05-17T06:55:18;4.57;;;1.70;;
5014;SDS011;2526;51.060;4.228;2023-05-17T06:57:43;8.38;;;2.22;;
5014;SDS011;2526;51.060;4.228;2023-05-17T07:00:09;3.22;;;1.77;;
5014;SDS011;2526;51.060;4.228;2023-05-17T07:02:35;5.85;;;1.92;;
5014;SDS011;2526;51.060;4.228;2023-05-17T07:05:01;16.17;;;6.07;;
5014;SDS011;2526;51.060;4.228;2023-05-17T07:07:28;5.22;;;1.65;;
5014;SDS011;2526;51.060;4.228;2023-05-17T07:09:53;3.50;;;1.98;;
5014;SDS011;2526;51.060;4.228;2023-05-17T07:12:19;4.22;;;2.40;;
5014;SDS011;2526;51.060;4.228;2023-05-17T07:14:45;6.65;;;2.17;;
5014;SDS011;2526;51.060;4.228;2023-05-17T07:17:10;4.63;;;2.05;;
5014;SDS011;2526;51.060;4.228;2023-05-17T07:19:36;10.43;;;2.58;;
5014;SDS011;2526;51.060;4.228;2023-05-17T07:22:01;3.28;;;1.60;;
5014;SDS011;2526;51.060;4.228;2023-05-17T07:24:27;6.10;;;2.80;;
5014;SDS011;2526;51.060;4.228;2023-05-17T07:26:52;12.43;;;2.38;;
5014;SDS011;2526;51.060;4.228;2023-05-17T07:29:18;4.25;;;1.38;;
5014;SDS011;2526;51.060;4.228;2023-05-17T07:31:43;3.88;;;1.50;;
5014;SDS011;2526;51.060;4.228;2023-05-17T07:34:09;2.65;;;1.50;;
5014;SDS011;2526;51.060;4.228;2023-05-17T07:36:34;3.60;;;1.88;;
5014;SDS011;2526;51.060;4.228;2023-05-17T07:39:00;10.70;;;2.47;;
5014;SDS011;2526;51.060;4.228;2023-05-17T07:41:25;5.75;;;2.42;;
5014;SDS011;2526;51.060;4.228;2023-05-17T07:43:51;6.68;;;2.60;;
5014;SDS011;2526;51.060;4.228;2023-05-17T07:46:16;3.75;;;1.63;;
5014;SDS011;2526;51.060;4.228;2023-05-17T07:48:42;4.88;;;2.53;;
5014;SDS011;2526;51.060;4.228;2023-05-17T07:51:08;6.28;;;1.73;;
5014;SDS011;2526;51.060;4.228;2023-05-17T07:53:33;2.83;;;1.90;;
5014;SDS011;2526;51.060;4.228;2023-05-17T07:55:58;2.08;;;1.42;;
5014;SDS011;2526;51.060;4.228;2023-05-17T07:58:24;2.80;;;1.08;;
5014;SDS011;2526;51.060;4.228;2023-05-17T08:00:49;8.57;;;2.42;;
5014;SDS011;2526;51.060;4.228;2023-05-17T08:03:15;4.45;;;1.50;;
5014;SDS011;2526;51.060;4.228;2023-05-17T08:05:40;3.58;;;1.60;;
5014;SDS011;2526;51.060;4.228;2023-05-17T08:08:06;2.05;;;1.25;;
5014;SDS011;2526;51.060;4.228;2023-05-17T08:10:32;12.70;;;2.75;;
5014;SDS011;2526;51.060;4.228;2023-05-17T08:12:58;4.75;;;2.20;;
5014;SDS011;2526;51.060;4.228;2023-05-17T08:15:24;9.05;;;2.22;;
5014;SDS011;2526;51.060;4.228;2023-05-17T08:17:50;5.25;;;1.33;;
5014;SDS011;2526;51.060;4.228;2023-05-17T08:20:15;6.03;;;1.92;;
5014;SDS011;2526;51.060;4.228;2023-05-17T08:22:41;3.08;;;1.08;;
5014;SDS011;2526;51.060;4.228;2023-05-17T08:25:07;8.43;;;2.05;;
5014;SDS011;2526;51.060;4.228;2023-05-17T08:27:33;6.93;;;1.35;;
5014;SDS011;2526;51.060;4.228;2023-05-17T08:29:58;4.20;;;1.75;;
5014;SDS011;2526;51.060;4.228;2023-05-17T08:32:24;4.47;;;1.42;;
5014;SDS011;2526;51.060;4.228;2023-05-17T08:34:50;6.38;;;1.10;;
5014;SDS011;2526;51.060;4.228;2023-05-17T08:37:16;7.20;;;2.97;;
5014;SDS011;2526;51.060;4.228;2023-05-17T08:39:42;1.60;;;1.02;;
5014;SDS011;2526;51.060;4.228;2023-05-17T08:42:07;1.80;;;1.00;;
5014;SDS011;2526;51.060;4.228;2023-05-17T08:44:33;1.70;;;0.98;;
5014;SDS011;2526;51.060;4.228;2023-05-17T08:46:58;1.42;;;0.77;;
5014;SDS011;2526;51.060;4.228;2023-05-17T08:49:26;3.95;;;1.38;;
5014;SDS011;2526;51.060;4.228;2023-05-17T08:51:53;3.40;;;0.85;;
5014;SDS011;2526;51.060;4.228;2023-05-17T08:54:18;3.92;;;1.52;;
5014;SDS011;2526;51.060;4.228;2023-05-17T08:56:44;2.90;;;1.10;;
5014;SDS011;2526;51.060;4.228;2023-05-17T08:59:11;6.05;;;1.33;;
5014;SDS011;2526;51.060;4.228;2023-05-17T09:01:39;3.90;;;1.40;;
5014;SDS011;2526;51.060;4.228;2023-05-17T09:04:07;7.40;;;1.58;;
5014;SDS011;2526;51.060;4.228;2023-05-17T09:06:36;1.67;;;1.27;;
5014;SDS011;2526;51.060;4.228;2023-05-17T09:09:03;7.22;;;1.10;;
5014;SDS011;2526;51.060;4.228;2023-05-17T09:11:29;2.35;;;0.73;;
5014;SDS011;2526;51.060;4.228;2023-05-17T09:14:00;4.28;;;1.10;;
5014;SDS011;2526;51.060;4.228;2023-05-17T09:16:27;4.25;;;1.13;;
5014;SDS011;2526;51.060;4.228;2023-05-17T09:18:53;9.82;;;1.25;;
5014;SDS011;2526;51.060;4.228;2023-05-17T09:21:19;4.53;;;1.05;;
5014;SDS011;2526;51.060;4.228;2023-05-17T09:23:45;1.02;;;0.68;;
5014;SDS011;2526;51.060;4.228;2023-05-17T09:26:11;4.00;;;0.52;;
5014;SDS011;2526;51.060;4.228;2023-05-17T09:28:40;5.10;;;1.52;;
5014;SDS011;2526;51.060;4.228;2023-05-17T09:31:06;1.95;;;1.15;;
5014;SDS011;2526;51.060;4.228;2023-05-17T09:33:47;4.80;;;0.93;;
5014;SDS011;2526;51.060;4.228;2023-05-17T09:36:20;7.35;;;1.15;;
5014;SDS011;2526;51.060;4.228;2023-05-17T09:38:52;5.27;;;1.17;;
5014;SDS011;2526;51.060;4.228;2023-05-17T09:41:18;6.15;;;1.15;;
5014;SDS011;2526;51.060;4.228;2023-05-17T09:43:44;2.70;;;0.98;;
5014;SDS011;2526;51.060;4.228;2023-05-17T09:46:09;2.72;;;1.00;;
5014;SDS011;2526;51.060;4.228;2023-05-17T09:48:36;4.40;;;1.50;;
5014;SDS011;2526;51.060;4.228;2023-05-17T09:51:02;6.68;;;1.25;;
5014;SDS011;2526;51.060;4.228;2023-05-17T09:53:28;4.20;;;0.40;;
5014;SDS011;2526;51.060;4.228;2023-05-17T09:55:58;5.20;;;0.77;;
5014;SDS011;2526;51.060;4.228;2023-05-17T09:58:24;3.90;;;1.27;;
5014;SDS011;2526;51.060;4.228;2023-05-17T10:00:52;1.35;;;0.82;;
5014;SDS011;2526;51.060;4.228;2023-05-17T10:03:18;1.48;;;0.57;;
5014;SDS011;2526;51.060;4.228;2023-05-17T10:05:44;5.53;;;1.02;;
5014;SDS011;2526;51.060;4.228;2023-05-17T10:08:11;6.78;;;1.13;;
5014;SDS011;2526;51.060;4.228;2023-05-17T10:10:37;2.40;;;0.63;;
5014;SDS011;2526;51.060;4.228;2023-05-17T10:13:03;3.53;;;1.08;;
5014;SDS011;2526;51.060;4.228;2023-05-17T10:15:31;3.42;;;1.77;;
5014;SDS011;2526;51.060;4.228;2023-05-17T10:17:56;5.10;;;1.25;;
5014;SDS011;2526;51.060;4.228;2023-05-17T10:20:23;1.65;;;1.10;;
5014;SDS011;2526;51.060;4.228;2023-05-17T10:22:48;4.30;;;1.20;;
5014;SDS011;2526;51.060;4.228;2023-05-17T10:25:14;3.70;;;0.98;;
5014;SDS011;2526;51.060;4.228;2023-05-17T10:27:40;7.13;;;1.00;;
5014;SDS011;2526;51.060;4.228;2023-05-17T10:30:06;1.45;;;1.10;;
5014;SDS011;2526;51.060;4.228;2023-05-17T10:32:33;11.15;;;1.67;;
5014;SDS011;2526;51.060;4.228;2023-05-17T10:34:58;3.90;;;1.05;;
5014;SDS011;2526;51.060;4.228;2023-05-17T10:37:25;4.72;;;0.68;;
5014;SDS011;2526;51.060;4.228;2023-05-17T10:39:53;7.32;;;1.00;;
5014;SDS011;2526;51.060;4.228;2023-05-17T10:42:21;4.10;;;1.23;;
5014;SDS011;2526;51.060;4.228;2023-05-17T10:44:46;9.05;;;1.02;;
5014;SDS011;2526;51.060;4.228;2023-05-17T10:47:12;5.40;;;0.95;;
5014;SDS011;2526;51.060;4.228;2023-05-17T10:49:38;3.28;;;1.63;;
5014;SDS011;2526;51.060;4.228;2023-05-17T10:54:38;5.30;;;1.65;;
5014;SDS011;2526;51.060;4.228;2023-05-17T10:57:05;5.80;;;1.23;;
5014;SDS011;2526;51.060;4.228;2023-05-17T10:59:31;4.03;;;1.02;;
5014;SDS011;2526;51.060;4.228;2023-05-17T11:02:07;0.88;;;0.52;;
5014;SDS011;2526;51.060;4.228;2023-05-17T11:09:54;8.18;;;1.02;;
5014;SDS011;2526;51.060;4.228;2023-05-17T11:12:33;11.18;;;0.98;;
5014;SDS011;2526;51.060;4.228;2023-05-17T11:15:02;0.63;;;0.32;;
5014;SDS011;2526;51.060;4.228;2023-05-17T11:20:00;10.52;;;1.23;;
5014;SDS011;2526;51.060;4.228;2023-05-17T11:22:26;0.75;;;0.30;;
5014;SDS011;2526;51.060;4.228;2023-05-17T11:24:52;6.00;;;1.02;;
5014;SDS011;2526;51.060;4.228;2023-05-17T11:27:18;2.55;;;1.00;;
5014;SDS011;2526;51.060;4.228;2023-05-17T11:29:47;4.82;;;0.98;;
5014;SDS011;2526;51.060;4.228;2023-05-17T11:32:13;3.25;;;1.40;;
5014;SDS011;2526;51.060;4.228;2023-05-17T11:34:38;1.65;;;1.10;;
5014;SDS011;2526;51.060;4.228;2023-05-17T11:37:04;0.35;;;0.35;;
5014;SDS011;2526;51.060;4.228;2023-05-17T11:39:34;0.98;;;0.60;;
5014;SDS011;2526;51.060;4.228;2023-05-17T11:41:59;1.10;;;1.02;;
5014;SDS011;2526;51.060;4.228;2023-05-17T11:44:29;7.18;;;1.40;;
5014;SDS011;2526;51.060;4.228;2023-05-17T11:49:27;3.78;;;1.20;;
5014;SDS011;2526;51.060;4.228;2023-05-17T11:51:52;2.60;;;1.00;;
5014;SDS011;2526;51.060;4.228;2023-05-17T11:54:20;3.38;;;1.23;;
5014;SDS011;2526;51.060;4.228;2023-05-17T11:56:46;13.13;;;1.35;;
5014;SDS011;2526;51.060;4.228;2023-05-17T11:59:17;9.60;;;1.83;;
5014;SDS011;2526;51.060;4.228;2023-05-17T12:01:43;6.32;;;1.15;;
5014;SDS011;2526;51.060;4.228;2023-05-17T12:04:10;4.00;;;0.77;;
5014;SDS011;2526;51.060;4.228;2023-05-17T12:06:35;8.90;;;1.05;;
5014;SDS011;2526;51.060;4.228;2023-05-17T12:09:01;2.00;;;0.93;;
5014;SDS011;2526;51.060;4.228;2023-05-17T12:11:27;1.20;;;0.82;;
5014;SDS011;2526;51.060;4.228;2023-05-17T12:13:53;2.53;;;0.90;;
5014;SDS011;2526;51.060;4.228;2023-05-17T12:16:20;1.85;;;0.77;;
5014;SDS011;2526;51.060;4.228;2023-05-17T12:18:49;10.15;;;1.15;;
5014;SDS011;2526;51.060;4.228;2023-05-17T12:21:14;6.57;;;0.90;;
5014;SDS011;2526;51.060;4.228;2023-05-17T12:23:41;0.70;;;0.45;;
5014;SDS011;2526;51.060;4.228;2023-05-17T12:28:36;1.08;;;0.55;;
5014;SDS011;2526;51.060;4.228;2023-05-17T12:31:03;2.45;;;0.75;;
5014;SDS011;2526;51.060;4.228;2023-05-17T12:33:30;1.35;;;0.57;;
5014;SDS011;2526;51.060;4.228;2023-05-17T12:35:55;2.15;;;0.98;;
5014;SDS011;2526;51.060;4.228;2023-05-17T12:38:21;3.22;;;0.70;;
5014;SDS011;2526;51.060;4.228;2023-05-17T12:40:46;2.35;;;0.73;;
5014;SDS011;2526;51.060;4.228;2023-05-17T12:43:12;0.73;;;0.60;;
5014;SDS011;2526;51.060;4.228;2023-05-17T12:45:40;3.60;;;0.90;;
5014;SDS011;2526;51.060;4.228;2023-05-17T12:48:05;1.73;;;0.93;;
5014;SDS011;2526;51.060;4.228;2023-05-17T12:50:31;2.45;;;0.93;;
5014;SDS011;2526;51.060;4.228;2023-05-17T12:52:56;7.47;;;0.95;;
5014;SDS011;2526;51.060;4.228;2023-05-17T12:55:22;2.78;;;1.38;;
5014;SDS011;2526;51.060;4.228;2023-05-17T12:57:51;1.58;;;0.65;;
5014;SDS011;2526;51.060;4.228;2023-05-17T13:00:18;1.90;;;0.70;;
5014;SDS011;2526;51.060;4.228;2023-05-17T13:02:43;2.67;;;0.60;;
5014;SDS011;2526;51.060;4.228;2023-05-17T13:05:18;5.03;;;1.17;;
5014;SDS011;2526;51.060;4.228;2023-05-17T13:07:45;4.18;;;0.88;;
5014;SDS011;2526;51.060;4.228;2023-05-17T13:15:25;8.65;;;0.90;;
5014;SDS011;2526;51.060;4.228;2023-05-17T13:17:50;2.47;;;1.05;;
5014;SDS011;2526;51.060;4.228;2023-05-17T13:20:16;1.92;;;0.70;;
5014;SDS011;2526;51.060;4.228;2023-05-17T13:22:45;2.70;;;2.08;;
5014;SDS011;2526;51.060;4.228;2023-05-17T13:25:11;2.13;;;0.77;;
5014;SDS011;2526;51.060;4.228;2023-05-17T13:27:36;4.13;;;1.60;;
5014;SDS011;2526;51.060;4.228;2023-05-17T13:30:02;2.05;;;0.65;;
5014;SDS011;2526;51.060;4.228;2023-05-17T13:32:27;4.35;;;1.02;;
5014;SDS011;2526;51.060;4.228;2023-05-17T13:34:53;3.70;;;1.05;;
5014;SDS011;2526;51.060;4.228;2023-05-17T13:37:18;5.95;;;1.58;;
5014;SDS011;2526;51.060;4.228;2023-05-17T13:39:45;2.83;;;0.98;;
5014;SDS011;2526;51.060;4.228;2023-05-17T13:42:11;3.00;;;0.93;;
5014;SDS011;2526;51.060;4.228;2023-05-17T13:44:36;6.88;;;1.05;;
5014;SDS011;2526;51.060;4.228;2023-05-17T13:47:02;6.40;;;1.52;;
5014;SDS011;2526;51.060;4.228;2023-05-17T13:49:28;1.30;;;0.80;;
5014;SDS011;2526;51.060;4.228;2023-05-17T13:51:53;9.68;;;1.10;;
5014;SDS011;2526;51.060;4.228;2023-05-17T13:54:19;1.50;;;0.63;;
5014;SDS011;2526;51.060;4.228;2023-05-17T13:56:44;2.58;;;0.77;;
5014;SDS011;2526;51.060;4.228;2023-05-17T13:59:10;2.70;;;1.30;;
5014;SDS011;2526;51.060;4.228;2023-05-17T14:01:36;2.45;;;0.65;;
5014;SDS011;2526;51.060;4.228;2023-05-17T14:04:02;3.90;;;0.98;;
5014;SDS011;2526;51.060;4.228;2023-05-17T14:06:28;4.90;;;0.85;;
5014;SDS011;2526;51.060;4.228;2023-05-17T14:08:53;2.05;;;1.02;;
5014;SDS011;2526;51.060;4.228;2023-05-17T14:11:21;1.98;;;0.77;;
5014;SDS011;2526;51.060;4.228;2023-05-17T14:13:46;1.67;;;1.08;;
5014;SDS011;2526;51.060;4.228;2023-05-17T14:16:12;1.95;;;1.00;;
5014;SDS011;2526;51.060;4.228;2023-05-17T14:18:38;1.85;;;0.93;;
5014;SDS011;2526;51.060;4.228;2023-05-17T14:21:03;2.45;;;1.05;;
5014;SDS011;2526;51.060;4.228;2023-05-17T14:23:29;1.27;;;0.38;;
5014;SDS011;2526;51.060;4.228;2023-05-17T14:25:55;9.57;;;1.20;;
5014;SDS011;2526;51.060;4.228;2023-05-17T14:28:21;3.22;;;0.68;;
5014;SDS011;2526;51.060;4.228;2023-05-17T14:30:47;2.78;;;0.98;;
5014;SDS011;2526;51.060;4.228;2023-05-17T14:33:12;1.23;;;0.73;;
5014;SDS011;2526;51.060;4.228;2023-05-17T14:35:38;13.60;;;1.35;;
5014;SDS011;2526;51.060;4.228;2023-05-17T14:38:03;2.58;;;0.90;;
5014;SDS011;2526;51.060;4.228;2023-05-17T14:40:29;5.32;;;0.80;;
5014;SDS011;2526;51.060;4.228;2023-05-17T14:42:54;3.70;;;0.68;;
5014;SDS011;2526;51.060;4.228;2023-05-17T14:45:20;3.03;;;0.60;;
5014;SDS011;2526;51.060;4.228;2023-05-17T14:47:46;3.25;;;0.70;;
5014;SDS011;2526;51.060;4.228;2023-05-17T14:50:11;2.78;;;0.90;;
5014;SDS011;2526;51.060;4.228;2023-05-17T14:52:37;3.28;;;1.05;;
5014;SDS011;2526;51.060;4.228;2023-05-17T14:55:02;10.40;;;0.75;;
5014;SDS011;2526;51.060;4.228;2023-05-17T14:57:28;1.75;;;0.60;;
5014;SDS011;2526;51.060;4.228;2023-05-17T14:59:53;4.80;;;0.80;;
5014;SDS011;2526;51.060;4.228;2023-05-17T15:02:19;3.40;;;0.75;;
5014;SDS011;2526;51.060;4.228;2023-05-17T15:04:44;3.35;;;0.82;;
5014;SDS011;2526;51.060;4.228;2023-05-17T15:07:10;5.30;;;0.70;;
5014;SDS011;2526;51.060;4.228;2023-05-17T15:09:39;4.90;;;1.25;;
5014;SDS011;2526;51.060;4.228;2023-05-17T15:12:06;3.15;;;0.63;;
5014;SDS011;2526;51.060;4.228;2023-05-17T15:14:31;1.45;;;0.90;;
5014;SDS011;2526;51.060;4.228;2023-05-17T15:16:57;1.42;;;0.80;;
5014;SDS011;2526;51.060;4.228;2023-05-17T15:19:22;0.88;;;0.63;;
5014;SDS011;2526;51.060;4.228;2023-05-17T15:21:48;7.22;;;1.17;;
5014;SDS011;2526;51.060;4.228;2023-05-17T15:24:13;5.53;;;1.10;;
5014;SDS011;2526;51.060;4.228;2023-05-17T15:26:39;2.22;;;0.88;;
5014;SDS011;2526;51.060;4.228;2023-05-17T15:29:04;2.20;;;0.55;;
5014;SDS011;2526;51.060;4.228;2023-05-17T15:31:30;4.78;;;0.80;;
5014;SDS011;2526;51.060;4.228;2023-05-17T15:33:56;1.75;;;0.85;;
5014;SDS011;2526;51.060;4.228;2023-05-17T15:36:22;0.60;;;0.60;;